Time;durP1;ratioP1;P1;durP2;ratioP2;P2;SDS_P1;SDS_P2;PMS_P1;PMS_P2;Temp;Humidity;BMP_temperature;BMP_pressure;BME280_temperature;BME280_humidity;BME280_pressure;Samples;Min_cycle;Max_cycle;Signal;HPM_P1;HPM_P2
2022/01/28 00:01:17;;;;;;;;;;;22.90;44.90;;;;;;3891087;22;19925;-85
2022/01/28 00:02:55;;;;;;;;;;;22.90;44.90;;;;;;3890766;22;19950;-85
2022/01/28 00:04:27;;;;;;;;;;;22.90;44.80;;;;;;3892330;22;19923;-84
2022/01/28 00:05:58;;;;;;;;;;;22.90;44.80;;;;;;3890929;22;19973;-86
2022/01/28 00:07:29;;;;;;;;;;;22.90;44.80;;;;;;3891507;22;19976;-86
2022/01/28 00:09:01;;;;;;;;;;;22.90;44.80;;;;;;3891655;22;19919;-85
2022/01/28 00:10:33;;;;;;;;;;;22.90;44.80;;;;;;3891841;22;19977;-85
2022/01/28 00:12:04;;;;;;;;;;;22.90;44.80;;;;;;3890523;22;19923;-86
2022/01/28 00:13:39;;;;;;;;;;;22.80;44.70;;;;;;3890118;22;20356;-85
2022/01/28 00:15:19;;;;;;;;;;;22.80;44.70;;;;;;3891062;22;19976;-85
2022/01/28 00:17:35;;;;;;;;;;;22.80;44.70;;;;;;3891964;22;19919;-85
2022/01/28 00:19:28;;;;;;;;;;;22.80;44.70;;;;;;3890571;22;20199;-86
2022/01/28 00:39:06;;;;;;;;;;;22.80;44.70;;;;;;3878897;22;19993;-86
2022/01/28 00:40:38;;;;;;;;;;;22.80;44.70;;;;;;3892866;22;20538;-85
2022/01/28 00:42:09;;;;;;;;;;;22.80;44.70;;;;;;3892776;22;19919;-85
2022/01/28 00:43:41;;;;;;;;;;;22.80;44.70;;;;;;3891888;22;20433;-85
2022/01/28 00:45:12;;;;;;;;;;;22.80;44.70;;;;;;3892464;22;19919;-85
2022/01/28 00:46:44;;;;;;;;;;;22.80;44.70;;;;;;3892092;22;19926;-86
2022/01/28 00:48:17;;;;;;;;;;;22.80;44.70;;;;;;3892507;22;19964;-85
2022/01/28 00:49:47;;;;;;;;;;;22.80;44.70;;;;;;3892337;22;20365;-86
2022/01/28 00:51:19;;;;;;;;;;;22.80;44.70;;;;;;3893165;22;19984;-86
2022/01/28 00:52:51;;;;;;;;;;;22.80;44.70;;;;;;3891789;22;19990;-86
2022/01/28 00:54:23;;;;;;;;;;;22.80;44.60;;;;;;3891931;22;20626;-85
2022/01/28 00:55:55;;;;;;;;;;;22.80;44.60;;;;;;3893417;22;20594;-87
2022/01/28 00:57:25;;;;;;;;;;;22.80;44.60;;;;;;3891567;22;19923;-86
2022/01/28 00:58:57;;;;;;;;;;;22.80;44.60;;;;;;3892086;22;19915;-87
2022/01/28 01:00:29;;;;;;;;;;;22.80;44.60;;;;;;3891220;22;19999;-86
2022/01/28 01:01:59;;;;;;;;;;;22.80;44.60;;;;;;3892992;22;19931;-87
2022/01/28 01:03:32;;;;;;;;;;;22.80;44.60;;;;;;3891468;22;19915;-86
2022/01/28 01:05:04;;;;;;;;;;;22.80;45.20;;;;;;3892075;22;19987;-86
2022/01/28 01:06:36;;;;;;;;;;;22.80;44.50;;;;;;3892058;22;20524;-86
2022/01/28 01:08:08;;;;;;;;;;;22.80;44.50;;;;;;3891544;22;19941;-86
2022/01/28 01:09:38;;;;;;;;;;;22.80;44.50;;;;;;3892083;22;19984;-86
2022/01/28 01:11:10;;;;;;;;;;;22.80;44.50;;;;;;3892628;22;19923;-86
2022/01/28 01:12:44;;;;;;;;;;;22.80;44.50;;;;;;3891432;22;19998;-86
2022/01/28 01:14:16;;;;;;;;;;;22.80;44.50;;;;;;3892024;22;20265;-86
2022/01/28 01:15:53;;;;;;;;;;;22.80;44.50;;;;;;3891016;22;19919;-86
2022/01/28 01:17:32;;;;;;;;;;;22.70;44.50;;;;;;3891510;22;19925;-86
2022/01/28 01:19:16;;;;;;;;;;;22.80;44.60;;;;;;3892565;22;20322;-86
2022/01/28 01:21:04;;;;;;;;;;;22.80;44.50;;;;;;3891771;22;19923;-86
2022/01/28 01:22:38;;;;;;;;;;;22.80;44.50;;;;;;3892092;22;19919;-85
2022/01/28 01:24:18;;;;;;;;;;;22.80;44.50;;;;;;3892419;22;19942;-86
2022/01/28 01:25:54;;;;;;;;;;;22.80;44.50;;;;;;3891677;22;19926;-86
2022/01/28 01:27:28;;;;;;;;;;;22.80;44.50;;;;;;3893111;22;19926;-85
2022/01/28 01:29:00;;;;;;;;;;;22.70;44.40;;;;;;3893205;22;19923;-87
2022/01/28 01:30:38;;;;;;;;;;;22.80;44.40;;;;;;3890499;22;19926;-86
2022/01/28 01:32:14;;;;;;;;;;;22.80;44.40;;;;;;3892740;22;20303;-86
2022/01/28 01:33:50;;;;;;;;;;;22.70;44.40;;;;;;3890742;22;20258;-86
2022/01/28 01:35:25;;;;;;;;;;;22.80;44.40;;;;;;3892241;22;20931;-86
2022/01/28 01:36:57;;;;;;;;;;;22.80;44.40;;;;;;3892664;22;19925;-86
2022/01/28 01:38:32;;;;;;;;;;;22.70;44.30;;;;;;3891339;22;19920;-85
2022/01/28 01:40:05;;;;;;;;;;;22.80;44.40;;;;;;3893031;22;20325;-87
2022/01/28 01:41:42;;;;;;;;;;;22.80;44.40;;;;;;3892178;22;19919;-86
2022/01/28 01:43:20;;;;;;;;;;;22.70;44.30;;;;;;3889701;22;20380;-87
2022/01/28 01:47:08;;;;;;;;;;;22.70;44.20;;;;;;3891214;22;19915;-86
2022/01/28 18:22:46;;;;;;;;;;;22.30;51.80;;;;;;3893088;22;19969;-88
2022/01/28 18:24:18;;;;;;;;;;;22.30;51.90;;;;;;3893120;22;19989;-89
2022/01/28 18:25:49;;;;;;;;;;;22.30;52.10;;;;;;3893407;22;20002;-89
2022/01/28 18:27:21;;;;;;;;;;;22.30;52.20;;;;;;3893471;22;19994;-87
2022/01/28 18:28:53;;;;;;;;;;;22.30;52.30;;;;;;3892743;22;19919;-88
2022/01/28 18:30:24;;;;;;;;;;;22.30;52.30;;;;;;3892385;22;19927;-88
2022/01/28 18:31:56;;;;;;;;;;;22.30;52.30;;;;;;3893050;22;19919;-89
2022/01/28 18:33:28;;;;;;;;;;;22.30;52.30;;;;;;3891156;22;19930;-87
2022/01/28 18:34:59;;;;;;;;;;;22.30;51.90;;;;;;3893995;22;19931;-87
2022/01/28 18:36:31;;;;;;;;;;;22.30;51.50;;;;;;3892292;22;19977;-86
2022/01/28 18:38:04;;;;;;;;;;;22.30;51.70;;;;;;3891915;22;20296;-87
2022/01/28 18:39:36;;;;;;;;;;;22.30;51.70;;;;;;3893198;22;19919;-88
2022/01/28 18:41:07;;;;;;;;;;;22.30;51.90;;;;;;3892981;22;19923;-87
2022/01/28 18:42:44;;;;;;;;;;;22.20;51.80;;;;;;3892474;22;19920;-86
2022/01/28 19:49:59;;;;;;;;;;;22.10;50.10;;;;;;3867368;22;19923;-85
2022/01/28 19:51:32;;;;;;;;;;;22.10;49.90;;;;;;3893685;22;19920;-86
2022/01/28 19:53:03;;;;;;;;;;;22.10;50.10;;;;;;3890981;22;19920;-88
2022/01/28 19:54:35;;;;;;;;;;;22.10;50.40;;;;;;3893980;22;19946;-88
2022/01/28 19:56:07;;;;;;;;;;;22.00;50.20;;;;;;3893958;22;19919;-84
2022/01/28 19:57:39;;;;;;;;;;;22.00;50.30;;;;;;3892803;22;20250;-88
2022/01/28 19:59:10;;;;;;;;;;;22.00;50.80;;;;;;3893452;22;19942;-85
2022/01/28 20:00:42;;;;;;;;;;;22.10;50.70;;;;;;3892545;22;19919;-85
2022/01/28 20:02:13;;;;;;;;;;;22.00;51.30;;;;;;3893772;22;19946;-85
